createdAt,value
2018-06-11T00:02:00.252Z,17.00
2018-06-11T00:04:29.561Z,16.90
2018-06-11T00:06:58.788Z,16.90
2018-06-11T00:09:28.053Z,16.90
2018-06-11T00:11:57.369Z,16.80
2018-06-11T00:14:26.592Z,16.80
2018-06-11T00:16:55.865Z,16.70
2018-06-11T00:19:25.409Z,16.70
2018-06-11T00:21:54.731Z,16.60
2018-06-11T00:24:24.092Z,16.60
2018-06-11T00:26:53.409Z,16.60
2018-06-11T00:29:22.697Z,16.50
2018-06-11T00:31:52.048Z,16.50
2018-06-11T00:34:21.364Z,16.40
2018-06-11T00:36:50.774Z,16.40
2018-06-11T00:39:20.126Z,16.40
2018-06-11T00:41:49.496Z,16.30
2018-06-11T00:46:47.707Z,16.30
2018-06-11T00:49:17.094Z,16.20
2018-06-11T00:51:46.456Z,16.20
2018-06-11T00:54:15.729Z,16.20
2018-06-11T00:56:45.078Z,16.20
2018-06-11T00:59:14.387Z,16.10
2018-06-11T01:01:43.702Z,16.10
2018-06-11T01:04:13.024Z,16.10
2018-06-11T01:06:42.341Z,16.10
2018-06-11T01:09:11.663Z,16.00
2018-06-11T01:11:40.918Z,16.00
2018-06-11T01:14:10.237Z,16.00
2018-06-11T01:16:39.523Z,15.90
2018-06-11T01:19:08.875Z,15.90
2018-06-11T01:21:38.223Z,15.90
2018-06-11T01:24:07.558Z,15.80
2018-06-11T01:26:37.135Z,15.80
2018-06-11T01:29:06.418Z,15.80
2018-06-11T01:31:35.658Z,15.70
2018-06-11T01:34:04.984Z,15.70
2018-06-11T01:36:34.246Z,15.60
2018-06-11T01:39:03.692Z,15.60
2018-06-11T01:41:32.996Z,15.60
2018-06-11T01:44:02.284Z,15.50
2018-06-11T01:46:31.611Z,15.50
2018-06-11T01:49:00.984Z,15.50
2018-06-11T01:51:30.299Z,15.40
2018-06-11T01:53:59.625Z,15.40
2018-06-11T01:56:28.882Z,15.30
2018-06-11T01:58:58.236Z,15.30
2018-06-11T02:01:27.605Z,15.20
2018-06-11T02:03:57.228Z,15.20
2018-06-11T02:06:26.525Z,15.20
2018-06-11T02:08:55.888Z,15.20
2018-06-11T02:11:25.303Z,15.20
2018-06-11T02:13:54.628Z,15.20
2018-06-11T02:16:23.984Z,15.20
2018-06-11T02:18:53.355Z,15.20
2018-06-11T02:21:22.786Z,15.10
2018-06-11T02:23:52.266Z,15.20
2018-06-11T02:26:21.588Z,15.30
2018-06-11T02:28:50.871Z,15.30
2018-06-11T02:31:20.172Z,15.40
2018-06-11T02:33:49.393Z,15.50
2018-06-11T02:36:18.775Z,15.60
2018-06-11T02:38:48.037Z,15.70
2018-06-11T02:41:17.339Z,15.70
2018-06-11T02:43:46.659Z,15.80
2018-06-11T02:46:15.999Z,15.90
2018-06-11T02:48:45.410Z,15.90
2018-06-11T02:51:15.346Z,16.00
2018-06-11T02:53:44.749Z,16.00
2018-06-11T02:56:14.025Z,16.10
2018-06-11T02:58:43.337Z,16.10
2018-06-11T03:01:12.621Z,16.20
2018-06-11T03:03:42.012Z,16.20
2018-06-11T03:06:11.315Z,16.20
2018-06-11T03:08:40.628Z,16.20
2018-06-11T03:11:09.952Z,16.30
2018-06-11T03:13:39.261Z,16.30
2018-06-11T03:16:08.610Z,16.30
2018-06-11T03:18:37.916Z,16.40
2018-06-11T03:21:07.244Z,16.40
2018-06-11T03:23:43.231Z,16.40
2018-06-11T03:26:12.795Z,16.50
2018-06-11T03:28:42.055Z,16.50
2018-06-11T03:31:11.397Z,16.50
2018-06-11T03:33:40.718Z,16.50
2018-06-11T03:36:10.067Z,16.60
2018-06-11T03:38:39.321Z,16.60
2018-06-11T03:41:08.607Z,16.60
2018-06-11T03:43:37.886Z,16.60
2018-06-11T03:46:07.237Z,16.60
2018-06-11T03:48:36.620Z,16.70
2018-06-11T03:51:05.996Z,16.70
2018-06-11T03:53:35.425Z,16.70
2018-06-11T03:56:04.742Z,16.80
2018-06-11T03:58:34.068Z,16.80
2018-06-11T04:03:32.210Z,16.80
2018-06-11T04:06:01.952Z,16.80
2018-06-11T04:08:31.295Z,16.80
2018-06-11T04:11:00.644Z,16.90
2018-06-11T04:13:29.960Z,16.90
2018-06-11T04:15:59.306Z,16.90
2018-06-11T04:18:28.557Z,16.90
2018-06-11T04:20:57.865Z,16.90
2018-06-11T04:23:27.198Z,16.90
2018-06-11T04:25:56.545Z,16.80
2018-06-11T04:28:25.790Z,16.80
2018-06-11T04:30:55.088Z,16.90
2018-06-11T04:33:24.368Z,16.90
2018-06-11T04:35:53.745Z,16.90
2018-06-11T04:38:23.089Z,16.90
2018-06-11T04:40:52.395Z,16.90
2018-06-11T04:43:21.649Z,16.90
2018-06-11T04:45:50.989Z,16.90
2018-06-11T04:48:20.538Z,16.90
2018-06-11T04:50:49.893Z,16.90
2018-06-11T04:55:48.077Z,16.90
2018-06-11T05:00:46.347Z,17.00
2018-06-11T05:03:15.629Z,17.10
2018-06-11T05:05:45.044Z,17.20
2018-06-11T05:08:14.360Z,17.20
2018-06-11T05:10:43.594Z,17.30
2018-06-11T05:13:12.952Z,17.40
2018-06-11T05:15:42.191Z,17.40
2018-06-11T05:18:11.736Z,17.50
2018-06-11T05:20:41.020Z,17.60
2018-06-11T05:23:10.498Z,17.70
2018-06-11T05:25:40.196Z,17.80
2018-06-11T05:28:09.708Z,17.90
2018-06-11T05:30:39.030Z,18.00
2018-06-11T05:33:08.390Z,18.10
2018-06-11T05:35:37.715Z,18.10
2018-06-11T05:38:07.169Z,18.10
2018-06-11T05:40:36.457Z,18.20
2018-06-11T05:43:05.970Z,18.20
2018-06-11T05:45:35.240Z,18.20
2018-06-11T05:48:04.728Z,18.40
2018-06-11T05:50:34.100Z,19.10
2018-06-11T05:53:03.391Z,20.10
2018-06-11T05:55:32.708Z,20.90
2018-06-11T05:58:02.086Z,21.80
2018-06-11T06:00:31.535Z,22.50
2018-06-11T06:03:00.806Z,23.00
2018-06-11T06:05:30.116Z,23.60
2018-06-11T06:07:59.523Z,24.10
2018-06-11T06:10:28.929Z,24.60
2018-06-11T06:12:58.245Z,25.00
2018-06-11T06:15:27.676Z,25.30
2018-06-11T06:17:57.042Z,25.50
2018-06-11T06:20:26.369Z,25.30
2018-06-11T06:22:55.735Z,25.50
2018-06-11T06:25:25.051Z,25.40
2018-06-11T06:27:54.487Z,25.70
2018-06-11T06:30:23.874Z,26.00
2018-06-11T06:32:53.249Z,26.10
2018-06-11T06:35:22.617Z,25.90
2018-06-11T06:37:51.935Z,25.90
2018-06-11T06:40:21.377Z,25.60
2018-06-11T06:42:50.701Z,25.30
2018-06-11T06:45:20.064Z,25.60
2018-06-11T06:47:49.397Z,25.60
2018-06-11T06:50:18.770Z,25.30
2018-06-11T06:52:48.044Z,24.80
2018-06-11T06:55:17.371Z,24.30
2018-06-11T06:57:46.683Z,23.90
2018-06-11T07:00:15.993Z,23.50
2018-06-11T07:02:45.720Z,23.20
2018-06-11T07:05:15.013Z,22.90
2018-06-11T07:10:13.195Z,22.90
2018-06-11T07:12:42.471Z,23.20
2018-06-11T07:15:12.389Z,24.60
2018-06-11T07:17:41.707Z,25.40
2018-06-11T07:20:11.103Z,25.40
2018-06-11T07:22:40.407Z,25.10
2018-06-11T07:25:09.913Z,24.70
2018-06-11T07:27:39.156Z,24.10
2018-06-11T07:30:08.933Z,23.60
2018-06-11T07:32:38.407Z,23.20
2018-06-11T07:35:07.965Z,23.00
2018-06-11T07:37:37.540Z,23.00
2018-06-11T07:40:06.843Z,23.00
2018-06-11T07:42:36.209Z,23.10
2018-06-11T07:50:03.670Z,24.20
2018-06-11T07:52:32.944Z,24.50
2018-06-11T07:55:02.210Z,24.50
2018-06-11T07:57:31.551Z,24.40
2018-06-11T08:00:01.012Z,24.40
2018-06-11T08:02:30.563Z,24.40
2018-06-11T08:07:28.729Z,24.70
2018-06-11T08:09:58.054Z,25.20
2018-06-11T08:12:27.658Z,25.50
2018-06-11T08:14:57.054Z,25.70
2018-06-11T08:17:26.356Z,26.40
2018-06-11T08:19:55.721Z,28.30
2018-06-11T08:22:28.274Z,30.20
2018-06-11T08:25:02.488Z,31.30
2018-06-11T08:27:34.584Z,32.00
2018-06-11T08:30:07.116Z,32.30
2018-06-11T08:32:39.128Z,32.80
2018-06-11T08:35:11.146Z,33.10
2018-06-11T08:37:40.670Z,33.50
2018-06-11T08:40:10.091Z,34.70
2018-06-11T08:42:39.393Z,36.20
2018-06-11T08:47:37.641Z,37.60
2018-06-11T08:50:07.276Z,36.60
2018-06-11T08:52:36.548Z,35.50
2018-06-11T08:55:06.487Z,35.60
2018-06-11T08:57:35.879Z,35.50
2018-06-11T09:00:06.504Z,35.60
2018-06-11T09:02:35.759Z,36.80
2018-06-11T09:07:34.051Z,38.20
2018-06-11T09:10:03.404Z,37.20
2018-06-11T09:12:32.977Z,36.20
2018-06-11T09:15:02.348Z,35.30
2018-06-11T09:17:31.754Z,34.00
2018-06-11T09:20:01.284Z,33.70
2018-06-11T09:22:30.908Z,34.70
2018-06-11T09:25:00.351Z,36.40
2018-06-11T09:27:30.407Z,37.80
2018-06-11T09:29:59.840Z,38.20
2018-06-11T09:32:29.138Z,37.40
2018-06-11T09:34:58.692Z,36.20
2018-06-11T09:37:28.235Z,36.60
2018-06-11T09:39:57.648Z,37.70
2018-06-11T09:42:26.892Z,39.10
2018-06-11T09:44:56.170Z,40.00
2018-06-11T09:47:25.443Z,41.10
2018-06-11T09:49:54.792Z,41.60
2018-06-11T09:52:24.374Z,40.80
2018-06-11T09:54:53.903Z,39.80
2018-06-11T09:57:23.290Z,38.30
2018-06-11T09:59:52.652Z,36.90
2018-06-11T10:02:22.493Z,35.60
2018-06-11T10:04:52.200Z,35.20
2018-06-11T10:07:21.515Z,35.50
2018-06-11T10:09:50.944Z,36.50
2018-06-11T10:12:20.367Z,37.60
2018-06-11T10:14:49.755Z,38.90
2018-06-11T10:17:19.087Z,40.30
2018-06-11T10:19:48.384Z,41.30
2018-06-11T10:22:17.686Z,42.00
2018-06-11T10:24:47.016Z,42.60
2018-06-11T10:27:16.416Z,43.10
2018-06-11T10:29:45.719Z,43.30
2018-06-11T10:32:15.091Z,43.80
2018-06-11T10:34:44.502Z,43.90
2018-06-11T10:37:13.785Z,44.10
2018-06-11T10:39:43.125Z,44.30
2018-06-11T10:42:12.581Z,44.20
2018-06-11T10:44:41.861Z,43.90
2018-06-11T10:47:11.159Z,43.90
2018-06-11T10:49:40.428Z,44.10
2018-06-11T10:52:09.820Z,44.10
2018-06-11T10:54:39.110Z,44.20
2018-06-11T10:57:08.532Z,44.20
2018-06-11T10:59:38.082Z,44.30
2018-06-11T11:02:07.400Z,44.20
2018-06-11T11:04:36.779Z,43.90
2018-06-11T11:07:06.188Z,43.80
2018-06-11T11:09:35.574Z,44.10
2018-06-11T11:12:04.880Z,44.30
2018-06-11T11:14:34.232Z,44.50
2018-06-11T11:17:03.709Z,44.80
2018-06-11T11:19:33.159Z,44.90
2018-06-11T11:22:02.547Z,44.90
2018-06-11T11:24:32.169Z,44.80
2018-06-11T11:27:01.552Z,44.60
2018-06-11T11:29:30.928Z,44.50
2018-06-11T11:32:00.313Z,44.30
2018-06-11T11:34:29.609Z,44.30
2018-06-11T11:36:58.918Z,44.30
2018-06-11T11:39:28.680Z,44.20
2018-06-11T11:41:58.063Z,44.10
2018-06-11T11:44:27.357Z,43.80
2018-06-11T11:46:57.076Z,43.30
2018-06-11T11:49:26.461Z,42.60
2018-06-11T11:51:55.873Z,41.80
2018-06-11T11:54:25.195Z,41.00
2018-06-11T11:56:54.540Z,40.20
2018-06-11T11:59:23.957Z,39.50
2018-06-11T12:01:53.345Z,38.80
2018-06-11T12:04:22.811Z,38.30
2018-06-11T12:06:52.357Z,37.80
2018-06-11T12:09:21.665Z,37.40
2018-06-11T12:11:51.317Z,37.20
2018-06-11T12:14:20.703Z,37.10
2018-06-11T12:16:50.155Z,36.90
2018-06-11T12:19:19.785Z,36.60
2018-06-11T12:21:49.149Z,36.60
2018-06-11T12:24:18.731Z,36.50
2018-06-11T12:26:48.098Z,36.60
2018-06-11T12:29:17.498Z,36.80
2018-06-11T12:31:46.778Z,36.70
2018-06-11T12:34:16.176Z,36.40
2018-06-11T12:36:45.830Z,36.20
2018-06-11T12:39:15.113Z,36.10
2018-06-11T12:41:44.843Z,36.00
2018-06-11T12:44:14.439Z,36.10
2018-06-11T12:46:43.717Z,36.20
2018-06-11T12:49:13.063Z,35.80
2018-06-11T12:51:42.436Z,35.40
2018-06-11T12:54:12.657Z,35.50
2018-06-11T12:56:42.182Z,35.80
2018-06-11T12:59:11.601Z,36.10
2018-06-11T13:01:41.270Z,36.40
2018-06-11T13:04:10.669Z,36.50
2018-06-11T13:06:39.984Z,36.20
2018-06-11T13:09:09.349Z,35.60
2018-06-11T13:11:38.681Z,35.30
2018-06-11T13:14:07.987Z,35.50
2018-06-11T13:16:37.661Z,35.70
2018-06-11T13:19:07.231Z,35.80
2018-06-11T13:21:36.797Z,36.00
2018-06-11T13:24:06.394Z,36.30
2018-06-11T13:29:04.869Z,36.80
2018-06-11T13:31:34.324Z,37.00
2018-06-11T13:34:03.736Z,37.20
2018-06-11T13:36:33.132Z,37.20
2018-06-11T13:39:02.844Z,37.30
2018-06-11T13:41:32.212Z,37.30
2018-06-11T13:44:01.531Z,37.30
2018-06-11T13:46:30.897Z,37.10
2018-06-11T13:49:01.043Z,36.80
2018-06-11T13:51:30.529Z,36.70
2018-06-11T13:53:59.907Z,36.70
2018-06-11T13:56:29.567Z,36.80
2018-06-11T13:58:59.493Z,36.80
2018-06-11T14:01:28.892Z,36.80
2018-06-11T14:03:58.378Z,36.80
2018-06-11T14:06:27.753Z,37.10
2018-06-11T14:08:57.874Z,37.20
2018-06-11T14:11:27.205Z,37.30
2018-06-11T14:13:56.472Z,37.30
2018-06-11T14:16:25.718Z,37.30
2018-06-11T14:18:55.211Z,37.30
2018-06-11T14:21:24.449Z,37.30
2018-06-11T14:23:53.712Z,37.30
2018-06-11T14:26:23.013Z,37.30
2018-06-11T14:28:52.391Z,37.10
2018-06-11T14:31:21.995Z,37.00
2018-06-11T14:33:52.025Z,36.90
2018-06-11T14:36:22.437Z,36.90
2018-06-11T14:38:51.702Z,36.90
2018-06-11T14:41:20.964Z,37.00
2018-06-11T14:43:50.343Z,36.90
2018-06-11T14:46:20.187Z,36.80
2018-06-11T14:48:49.592Z,36.60
2018-06-11T14:53:48.195Z,36.50
2018-06-11T14:56:17.528Z,36.30
2018-06-11T14:58:46.844Z,36.20
2018-06-11T15:01:16.181Z,36.30
2018-06-11T15:03:46.205Z,36.30
2018-06-11T15:06:16.312Z,36.20
2018-06-11T15:08:45.652Z,36.10
2018-06-11T15:11:15.900Z,35.80
2018-06-11T15:13:45.501Z,35.40
2018-06-11T15:16:15.185Z,34.60
2018-06-11T15:18:44.504Z,33.60
2018-06-11T15:21:13.865Z,32.40
2018-06-11T15:23:43.197Z,31.40
2018-06-11T15:26:12.650Z,30.60
2018-06-11T15:28:41.950Z,30.00
2018-06-11T15:31:11.317Z,29.40
2018-06-11T15:33:40.766Z,28.90
2018-06-11T15:36:10.163Z,28.40
2018-06-11T15:38:39.836Z,28.00
2018-06-11T15:41:09.455Z,27.80
2018-06-11T15:43:38.941Z,27.60
2018-06-11T15:46:09.296Z,27.30
2018-06-11T15:48:38.606Z,27.10
2018-06-11T15:51:08.018Z,26.90
2018-06-11T15:53:37.284Z,26.70
2018-06-11T15:56:06.897Z,26.50
2018-06-11T15:58:40.301Z,26.40
2018-06-11T16:01:13.392Z,26.20
2018-06-11T16:03:43.370Z,26.10
2018-06-11T16:08:44.406Z,25.90
2018-06-11T16:11:14.185Z,25.80
2018-06-11T16:13:44.439Z,25.70
2018-06-11T16:16:14.140Z,25.60
2018-06-11T16:18:44.130Z,25.50
2018-06-11T16:21:15.837Z,25.40
2018-06-11T16:23:47.142Z,25.40
2018-06-11T16:26:17.740Z,25.30
2018-06-11T16:28:51.255Z,25.30
2018-06-11T16:31:21.526Z,25.20
2018-06-11T16:33:54.920Z,25.20
2018-06-11T16:36:27.105Z,25.10
2018-06-11T16:38:59.172Z,25.10
2018-06-11T16:41:29.749Z,25.10
2018-06-11T16:43:59.903Z,25.10
2018-06-11T16:46:31.345Z,25.00
2018-06-11T16:49:03.873Z,25.10
2018-06-11T16:51:38.773Z,25.10
2018-06-11T16:54:08.305Z,25.00
2018-06-11T16:56:37.780Z,25.00
2018-06-11T16:59:07.267Z,25.00
2018-06-11T17:04:06.334Z,24.90
2018-06-11T17:06:35.830Z,24.90
2018-06-11T17:09:07.779Z,24.80
2018-06-11T17:11:37.867Z,24.80
2018-06-11T17:14:07.551Z,24.70
2018-06-11T17:16:37.370Z,24.60
2018-06-11T17:19:06.962Z,24.60
2018-06-11T17:21:36.663Z,24.50
2018-06-11T17:24:07.488Z,24.50
2018-06-11T17:26:37.260Z,24.40
2018-06-11T17:29:07.362Z,24.40
2018-06-11T17:31:37.496Z,24.30
2018-06-11T17:34:08.153Z,24.30
2018-06-11T17:36:38.360Z,24.30
2018-06-11T17:39:09.460Z,24.30
2018-06-11T17:41:40.000Z,24.20
2018-06-11T17:44:11.145Z,24.20
2018-06-11T17:46:41.147Z,24.10
2018-06-11T17:51:41.805Z,24.00
2018-06-11T17:54:14.590Z,24.00
2018-06-11T17:56:45.795Z,23.90
2018-06-11T17:59:17.890Z,23.80
2018-06-11T18:01:50.943Z,23.70
2018-06-11T18:04:21.564Z,23.60
2018-06-11T18:06:52.254Z,23.60
2018-06-11T18:09:23.028Z,23.50
2018-06-11T18:11:52.995Z,23.40
2018-06-11T18:14:23.321Z,23.30
2018-06-11T18:16:53.573Z,23.20
2018-06-11T18:19:25.272Z,23.10
2018-06-11T18:21:56.705Z,23.00
2018-06-11T18:24:26.656Z,22.90
2018-06-11T18:26:59.281Z,22.80
2018-06-11T18:29:31.595Z,22.60
2018-06-11T18:32:03.771Z,22.60
2018-06-11T18:34:34.136Z,22.40
2018-06-11T18:37:04.976Z,22.30
2018-06-11T18:39:34.870Z,22.30
2018-06-11T18:42:04.550Z,22.20
2018-06-11T18:44:34.110Z,22.10
2018-06-11T18:47:04.055Z,22.00
2018-06-11T18:49:33.655Z,21.90
2018-06-11T18:52:03.624Z,21.80
2018-06-11T18:54:35.334Z,21.70
2018-06-11T18:57:05.604Z,21.60
2018-06-11T18:59:35.065Z,21.50
2018-06-11T19:02:04.764Z,21.40
2018-06-11T19:04:34.583Z,21.30
2018-06-11T19:07:04.085Z,21.20
2018-06-11T19:09:34.055Z,21.10
2018-06-11T19:12:03.909Z,21.00
2018-06-11T19:14:33.700Z,20.80
2018-06-11T19:17:04.711Z,20.80
2018-06-11T19:19:34.690Z,20.70
2018-06-11T19:22:04.772Z,20.50
2018-06-11T19:24:34.667Z,20.40
2018-06-11T19:27:04.304Z,20.30
2018-06-11T19:29:33.968Z,20.20
2018-06-11T19:32:04.245Z,20.10
2018-06-11T19:34:34.300Z,19.90
2018-06-11T19:37:04.084Z,19.80
2018-06-11T19:39:34.052Z,19.70
2018-06-11T19:42:03.919Z,19.50
2018-06-11T19:44:33.844Z,19.40
2018-06-11T19:47:04.398Z,19.30
2018-06-11T19:49:33.895Z,19.20
2018-06-11T19:52:03.649Z,19.10
2018-06-11T19:54:33.558Z,19.00
2018-06-11T19:57:03.053Z,18.90
2018-06-11T19:59:33.102Z,18.80
2018-06-11T20:02:02.828Z,18.70
2018-06-11T20:04:32.272Z,18.60
2018-06-11T20:07:01.804Z,18.50
2018-06-11T20:09:31.531Z,18.50
2018-06-11T20:12:00.952Z,18.40
2018-06-11T20:14:30.663Z,18.30
2018-06-11T20:17:00.068Z,18.30
2018-06-11T20:19:29.949Z,18.20
2018-06-11T20:21:59.203Z,18.20
2018-06-11T20:24:28.574Z,18.10
2018-06-11T20:26:57.910Z,18.00
2018-06-11T20:29:27.312Z,17.90
2018-06-11T20:31:56.673Z,17.80
2018-06-11T20:34:26.151Z,17.70
2018-06-11T20:36:55.786Z,17.70
2018-06-11T20:39:25.661Z,17.60
2018-06-11T20:41:55.140Z,17.50
2018-06-11T20:44:24.652Z,17.40
2018-06-11T20:46:54.156Z,17.30
2018-06-11T20:49:23.569Z,17.20
2018-06-11T20:51:53.222Z,17.20
2018-06-11T20:54:22.590Z,17.10
2018-06-11T20:56:52.401Z,17.00
2018-06-11T20:59:21.922Z,16.90
2018-06-11T21:01:51.568Z,16.90
2018-06-11T21:04:21.064Z,16.80
2018-06-11T21:06:50.519Z,16.70
2018-06-11T21:09:19.911Z,16.60
2018-06-11T21:11:49.156Z,16.60
2018-06-11T21:14:18.561Z,16.50
2018-06-11T21:16:47.943Z,16.50
2018-06-11T21:19:17.333Z,16.50
2018-06-11T21:21:46.703Z,16.40
2018-06-11T21:24:16.093Z,16.40
2018-06-11T21:26:45.382Z,16.30
2018-06-11T21:29:14.775Z,16.30
2018-06-11T21:31:44.104Z,16.20
2018-06-11T21:34:13.445Z,16.20
2018-06-11T21:36:43.365Z,16.10
2018-06-11T21:39:12.796Z,16.10
2018-06-11T21:41:42.264Z,16.10
2018-06-11T21:44:11.619Z,16.00
2018-06-11T21:49:10.664Z,16.00
2018-06-11T21:51:40.039Z,15.90
2018-06-11T21:54:09.600Z,15.90
2018-06-11T21:56:38.906Z,15.80
2018-06-11T21:59:08.400Z,15.80
2018-06-11T22:01:37.708Z,15.80
2018-06-11T22:04:08.155Z,15.70
2018-06-11T22:06:37.985Z,15.70
2018-06-11T22:09:08.623Z,15.70
2018-06-11T22:11:37.918Z,15.60
2018-06-11T22:14:07.262Z,15.60
2018-06-11T22:16:36.559Z,15.60
2018-06-11T22:19:05.955Z,15.50
2018-06-11T22:21:35.994Z,15.50
2018-06-11T22:24:05.281Z,15.50
2018-06-11T22:26:34.680Z,15.40
2018-06-11T22:29:04.018Z,15.40
2018-06-11T22:34:02.267Z,15.30
2018-06-11T22:36:31.552Z,15.30
2018-06-11T22:39:00.930Z,15.30
2018-06-11T22:41:30.203Z,15.20
2018-06-11T22:43:59.510Z,15.20
2018-06-11T22:46:28.779Z,15.10
2018-06-11T22:48:58.091Z,15.10
2018-06-11T22:51:27.477Z,15.10
2018-06-11T22:53:56.820Z,15.10
2018-06-11T22:56:26.094Z,15.00
2018-06-11T22:58:55.858Z,15.00
2018-06-11T23:01:25.233Z,14.90
2018-06-11T23:03:54.589Z,14.90
2018-06-11T23:06:24.022Z,14.80
2018-06-11T23:08:53.402Z,14.70
2018-06-11T23:11:22.749Z,14.70
2018-06-11T23:13:52.045Z,14.60
2018-06-11T23:16:21.373Z,14.50
2018-06-11T23:18:50.653Z,14.50
2018-06-11T23:21:19.997Z,14.40
2018-06-11T23:23:49.328Z,14.30
2018-06-11T23:26:18.724Z,14.30
2018-06-11T23:28:48.116Z,14.20
2018-06-11T23:31:17.587Z,14.20
2018-06-11T23:33:46.849Z,14.10
2018-06-11T23:36:16.203Z,14.10
2018-06-11T23:38:45.556Z,14.10
2018-06-11T23:41:31.639Z,14.00
2018-06-11T23:50:00.346Z,13.80
2018-06-11T23:52:29.722Z,13.80
2018-06-11T23:54:59.104Z,13.70
2018-06-11T23:57:28.460Z,13.70
2018-06-11T23:59:58.201Z,13.70
